createdAt,value
2023-04-07T00:00:52.971Z,5.900
2023-04-07T00:06:42.176Z,5.800
2023-04-07T00:07:27.975Z,5.800
2023-04-07T00:08:50.846Z,5.700
2023-04-07T00:10:36.833Z,5.700
2023-04-07T00:12:20.724Z,5.700
2023-04-07T00:13:42.811Z,5.700
2023-04-07T00:14:23.619Z,5.700
2023-04-07T00:15:39.990Z,5.700
2023-04-07T00:16:47.247Z,5.700
2023-04-07T00:21:32.831Z,5.700
2023-04-07T00:22:59.170Z,5.600
2023-04-07T00:26:31.402Z,5.500
2023-04-07T00:29:21.568Z,5.500
2023-04-07T00:30:56.527Z,5.400
2023-04-07T00:32:41.452Z,5.500
2023-04-07T00:36:24.575Z,5.400
2023-04-07T00:37:28.567Z,5.500
2023-04-07T00:38:42.992Z,5.500
2023-04-07T00:39:34.289Z,5.500
2023-04-07T00:40:20.795Z,5.500
2023-04-07T00:41:30.430Z,5.500
2023-04-07T00:44:47.564Z,5.500
2023-04-07T00:45:50.609Z,5.500
2023-04-07T00:46:37.118Z,5.500
2023-04-07T00:47:22.785Z,5.500
2023-04-07T00:48:25.480Z,5.500
2023-04-07T00:49:24.792Z,5.500
2023-04-07T00:50:22.401Z,5.600
2023-04-07T00:52:07.176Z,5.600
2023-04-07T00:52:52.949Z,5.600
2023-04-07T00:53:42.862Z,5.600
2023-04-07T00:54:26.928Z,5.600
2023-04-07T00:55:36.180Z,5.600
2023-04-07T00:56:30.681Z,5.600
2023-04-07T00:57:24.405Z,5.600
2023-04-07T00:58:20.945Z,5.600
2023-04-07T00:59:23.410Z,5.600
2023-04-07T01:00:36.960Z,5.600
2023-04-07T01:01:30.892Z,5.600
2023-04-07T01:02:43.443Z,5.700
2023-04-07T01:10:22.990Z,5.700
2023-04-07T01:11:34.822Z,5.700
2023-04-07T01:14:24.042Z,5.700
2023-04-07T01:14:50.772Z,5.700
2023-04-07T01:15:36.420Z,5.700
2023-04-07T01:21:51.916Z,5.700
2023-04-07T01:22:30.706Z,5.700
2023-04-07T01:23:24.599Z,5.700
2023-04-07T01:24:46.624Z,5.700
2023-04-07T01:25:43.915Z,5.700
2023-04-07T01:28:21.100Z,5.700
2023-04-07T01:29:43.083Z,5.700
2023-04-07T01:30:29.237Z,5.700
2023-04-07T01:31:50.129Z,5.700
2023-04-07T01:32:43.064Z,5.700
2023-04-07T01:33:26.516Z,5.700
2023-04-07T01:34:24.267Z,5.700
2023-04-07T01:35:20.511Z,5.700
2023-04-07T01:36:44.935Z,5.700
2023-04-07T01:37:32.742Z,5.700
2023-04-07T01:38:54.487Z,5.700
2023-04-07T01:39:32.721Z,5.700
2023-04-07T01:40:41.163Z,5.700
2023-04-07T01:41:27.505Z,5.700
2023-04-07T01:42:24.963Z,5.700
2023-04-07T01:43:21.933Z,5.700
2023-04-07T01:44:26.812Z,5.700
2023-04-07T01:45:20.958Z,5.700
2023-04-07T01:46:51.306Z,5.700
2023-04-07T01:47:45.160Z,5.700
2023-04-07T01:48:30.828Z,5.700
2023-04-07T01:49:29.012Z,5.700
2023-04-07T01:50:22.647Z,5.700
2023-04-07T01:51:38.207Z,5.700
2023-04-07T01:52:23.375Z,5.700
2023-04-07T01:53:55.843Z,5.700
2023-04-07T01:54:48.580Z,5.700
2023-04-07T01:55:21.980Z,5.700
2023-04-07T01:56:33.155Z,5.700
2023-04-07T01:57:26.141Z,5.700
2023-04-07T01:58:23.738Z,5.700
2023-04-07T02:00:07.010Z,5.800
2023-04-07T02:01:04.383Z,5.800
2023-04-07T02:01:26.266Z,5.800
2023-04-07T02:02:35.781Z,5.800
2023-04-07T02:03:23.372Z,5.800
2023-04-07T02:04:29.743Z,5.800
2023-04-07T02:05:22.897Z,5.800
2023-04-07T02:06:21.503Z,5.800
2023-04-07T02:07:30.370Z,5.800
2023-04-07T02:08:44.218Z,5.800
2023-04-07T02:09:41.544Z,5.800
2023-04-07T02:10:26.746Z,5.900
2023-04-07T02:11:34.617Z,5.900
2023-04-07T02:12:22.592Z,5.900
2023-04-07T02:13:22.023Z,5.900
2023-04-07T02:14:20.239Z,5.900
2023-04-07T02:15:55.469Z,5.900
2023-04-07T02:16:54.072Z,6.000
2023-04-07T02:17:47.059Z,6.000
2023-04-07T02:18:28.860Z,6.000
2023-04-07T02:19:30.779Z,6.000
2023-04-07T02:20:25.388Z,6.000
2023-04-07T02:21:23.035Z,6.000
2023-04-07T02:22:57.631Z,6.000
2023-04-07T02:23:45.547Z,6.100
2023-04-07T02:24:33.524Z,6.100
2023-04-07T02:25:42.797Z,6.100
2023-04-07T02:26:36.930Z,6.100
2023-04-07T02:27:29.313Z,6.100
2023-04-07T02:28:20.627Z,6.100
2023-04-07T02:29:24.519Z,6.100
2023-04-07T02:30:39.012Z,6.100
2023-04-07T02:31:35.698Z,6.100
2023-04-07T02:32:21.649Z,6.100
2023-04-07T02:33:42.800Z,6.100
2023-04-07T02:34:32.252Z,6.200
2023-04-07T02:35:25.775Z,6.200
2023-04-07T02:36:23.123Z,6.200
2023-04-07T02:37:51.251Z,6.200
2023-04-07T02:38:39.375Z,6.200
2023-04-07T02:39:24.862Z,6.200
2023-04-07T02:40:23.303Z,6.200
2023-04-07T02:41:37.848Z,6.200
2023-04-07T02:42:30.287Z,6.200
2023-04-07T02:43:24.068Z,6.200
2023-04-07T02:44:20.792Z,6.200
2023-04-07T02:45:42.976Z,6.300
2023-04-07T02:46:28.019Z,6.300
2023-04-07T02:47:42.992Z,6.300
2023-04-07T02:48:43.639Z,6.300
2023-04-07T02:49:35.739Z,6.300
2023-04-07T02:50:21.822Z,6.300
2023-04-07T02:52:32.600Z,6.300
2023-04-07T02:53:29.862Z,6.300
2023-04-07T02:54:52.393Z,6.300
2023-04-07T02:55:52.074Z,6.300
2023-04-07T02:56:39.782Z,6.300
2023-04-07T02:57:27.649Z,6.300
2023-04-07T02:58:23.043Z,6.300
2023-04-07T02:59:22.279Z,6.300
2023-04-07T03:00:33.789Z,6.300
2023-04-07T03:01:19.754Z,6.300
2023-04-07T03:02:49.407Z,6.300
2023-04-07T03:03:29.887Z,6.300
2023-04-07T03:04:34.744Z,6.400
2023-04-07T03:06:19.818Z,6.400
2023-04-07T03:07:35.621Z,6.400
2023-04-07T03:08:22.734Z,6.400
2023-04-07T03:09:35.409Z,6.400
2023-04-07T03:10:49.006Z,6.400
2023-04-07T03:11:43.015Z,6.400
2023-04-07T03:12:31.331Z,6.400
2023-04-07T03:13:23.759Z,6.400
2023-04-07T03:14:26.066Z,6.400
2023-04-07T03:15:25.827Z,6.400
2023-04-07T03:16:53.053Z,6.400
2023-04-07T03:17:50.654Z,6.400
2023-04-07T03:18:35.568Z,6.500
2023-04-07T03:19:22.136Z,6.400
2023-04-07T03:20:30.558Z,6.500
2023-04-07T03:21:20.894Z,6.500
2023-04-07T03:22:20.448Z,6.500
2023-04-07T03:24:02.847Z,6.500
2023-04-07T03:24:54.547Z,6.500
2023-04-07T03:25:22.713Z,6.500
2023-04-07T03:26:25.408Z,6.500
2023-04-07T03:27:31.991Z,6.500
2023-04-07T03:28:26.918Z,6.500
2023-04-07T03:29:25.750Z,6.500
2023-04-07T03:31:08.123Z,6.500
2023-04-07T03:31:27.794Z,6.500
2023-04-07T03:32:42.094Z,6.500
2023-04-07T03:33:28.636Z,6.500
2023-04-07T03:34:36.204Z,6.500
2023-04-07T03:35:29.060Z,6.500
2023-04-07T03:36:23.751Z,6.500
2023-04-07T03:37:22.334Z,6.500
2023-04-07T03:38:46.634Z,6.500
2023-04-07T03:39:44.527Z,6.500
2023-04-07T03:40:30.537Z,6.500
2023-04-07T03:41:39.676Z,6.500
2023-04-07T03:42:24.301Z,6.500
2023-04-07T03:43:27.335Z,6.600
2023-04-07T03:44:26.631Z,6.600
2023-04-07T03:46:47.838Z,6.600
2023-04-07T03:47:33.275Z,6.600
2023-04-07T03:48:20.430Z,6.600
2023-04-07T03:49:46.455Z,6.600
2023-04-07T03:51:24.460Z,6.600
2023-04-07T03:52:24.397Z,6.600
2023-04-07T03:53:21.131Z,6.600
2023-04-07T03:54:37.629Z,6.600
2023-04-07T03:55:22.830Z,6.650
2023-04-07T03:56:42.571Z,6.700
2023-04-07T03:57:36.159Z,6.700
2023-04-07T03:58:27.284Z,6.700
2023-04-07T03:59:21.570Z,6.700
2023-04-07T04:00:20.780Z,6.700
2023-04-07T04:01:41.169Z,6.700
2023-04-07T04:02:27.100Z,6.700
2023-04-07T04:03:46.081Z,6.700
2023-04-07T04:04:39.650Z,6.700
2023-04-07T04:05:34.813Z,6.700
2023-04-07T04:06:25.800Z,6.700
2023-04-07T04:07:24.769Z,6.700
2023-04-07T04:08:43.650Z,6.800
2023-04-07T04:09:29.671Z,6.800
2023-04-07T04:10:23.710Z,6.800
2023-04-07T04:11:36.471Z,6.800
2023-04-07T04:12:40.573Z,6.800
2023-04-07T04:13:29.432Z,6.800
2023-04-07T04:15:22.417Z,6.800
2023-04-07T04:16:30.366Z,6.800
2023-04-07T04:18:47.123Z,6.800
2023-04-07T04:20:27.868Z,6.800
2023-04-07T04:21:19.975Z,6.800
2023-04-07T04:22:27.123Z,6.800
2023-04-07T04:23:35.477Z,6.800
2023-04-07T04:24:24.833Z,6.800
2023-04-07T04:25:51.767Z,6.800
2023-04-07T04:26:43.258Z,6.800
2023-04-07T04:27:26.498Z,6.800
2023-04-07T04:28:28.902Z,6.800
2023-04-07T04:29:22.404Z,6.800
2023-04-07T04:30:25.475Z,6.800
2023-04-07T04:31:25.274Z,6.800
2023-04-07T04:32:55.262Z,6.800
2023-04-07T04:33:32.062Z,6.800
2023-04-07T04:34:34.828Z,6.800
2023-04-07T04:35:19.829Z,6.800
2023-04-07T04:36:25.947Z,6.800
2023-04-07T04:37:28.372Z,6.800
2023-04-07T04:38:21.943Z,6.800
2023-04-07T04:39:36.822Z,6.800
2023-04-07T04:40:50.745Z,6.700
2023-04-07T04:41:37.492Z,6.700
2023-04-07T04:43:29.983Z,6.800
2023-04-07T04:44:23.143Z,6.800
2023-04-07T04:45:24.873Z,6.800
2023-04-07T04:46:53.026Z,6.800
2023-04-07T04:48:41.146Z,6.800
2023-04-07T04:49:40.734Z,6.800
2023-04-07T04:50:35.539Z,6.800
2023-04-07T04:51:28.663Z,6.700
2023-04-07T04:52:20.963Z,6.700
2023-04-07T04:53:21.913Z,6.700
2023-04-07T04:55:24.375Z,6.700
2023-04-07T04:56:30.541Z,6.700
2023-04-07T04:57:37.567Z,6.700
2023-04-07T04:58:32.263Z,6.700
2023-04-07T04:59:23.692Z,6.700
2023-04-07T05:00:26.115Z,6.700
2023-04-07T05:02:46.318Z,6.700
2023-04-07T05:03:33.328Z,6.700
2023-04-07T05:04:43.229Z,6.700
2023-04-07T05:05:35.993Z,6.700
2023-04-07T05:06:23.004Z,6.700
2023-04-07T05:07:21.890Z,6.700
2023-04-07T05:08:23.609Z,6.700
2023-04-07T05:09:48.697Z,6.700
2023-04-07T05:10:36.812Z,6.700
2023-04-07T05:11:22.065Z,6.700
2023-04-07T05:12:27.284Z,6.700
2023-04-07T05:13:33.445Z,6.700
2023-04-07T05:14:26.522Z,6.700
2023-04-07T05:15:27.934Z,6.700
2023-04-07T05:16:20.991Z,6.700
2023-04-07T05:17:39.272Z,6.700
2023-04-07T05:18:27.193Z,6.700
2023-04-07T05:19:46.130Z,6.700
2023-04-07T05:20:37.035Z,6.700
2023-04-07T05:22:22.037Z,6.700
2023-04-07T05:23:25.339Z,6.700
2023-04-07T05:25:28.093Z,6.700
2023-04-07T05:26:48.625Z,6.700
2023-04-07T05:27:51.598Z,6.700
2023-04-07T05:29:24.498Z,6.700
2023-04-07T05:30:28.752Z,6.700
2023-04-07T05:31:22.786Z,6.700
2023-04-07T05:32:30.450Z,6.800
2023-04-07T05:33:52.351Z,6.800
2023-04-07T05:34:45.168Z,6.800
2023-04-07T05:35:35.826Z,6.900
2023-04-07T05:36:27.034Z,7.000
2023-04-07T05:38:26.197Z,7.000
2023-04-07T05:39:33.843Z,7.000
2023-04-07T05:40:21.469Z,7.000
2023-04-07T05:41:41.637Z,7.000
2023-04-07T05:42:42.598Z,7.000
2023-04-07T05:43:30.691Z,7.100
2023-04-07T05:44:26.920Z,7.100
2023-04-07T05:45:21.460Z,7.200
2023-04-07T05:46:24.054Z,7.200
2023-04-07T05:47:24.175Z,7.100
2023-04-07T05:48:53.939Z,7.100
2023-04-07T05:49:45.871Z,7.100
2023-04-07T05:50:33.104Z,7.100
2023-04-07T05:51:23.291Z,7.100
2023-04-07T05:52:23.983Z,7.100
2023-04-07T05:53:29.864Z,7.100
2023-04-07T05:54:20.876Z,7.100
2023-04-07T05:55:59.405Z,7.200
2023-04-07T05:57:28.645Z,7.200
2023-04-07T05:58:23.337Z,7.200
2023-04-07T05:59:27.590Z,7.300
2023-04-07T06:00:20.257Z,7.300
2023-04-07T06:01:26.898Z,7.300
2023-04-07T06:03:01.191Z,7.400
2023-04-07T06:03:33.456Z,7.400
2023-04-07T06:04:41.029Z,7.500
2023-04-07T06:05:29.329Z,7.600
2023-04-07T06:06:33.024Z,7.600
2023-04-07T06:07:24.727Z,7.700
2023-04-07T06:08:23.844Z,7.800
2023-04-07T06:09:22.919Z,7.900
2023-04-07T06:11:42.683Z,8.000
2023-04-07T06:12:29.863Z,8.050
2023-04-07T06:13:36.287Z,8.100
2023-04-07T06:14:30.288Z,8.100
2023-04-07T06:15:23.727Z,8.200
2023-04-07T06:16:22.789Z,8.300
2023-04-07T06:17:58.181Z,8.300
2023-04-07T06:18:45.369Z,8.500
2023-04-07T06:19:22.442Z,8.500
2023-04-07T06:21:34.321Z,8.500
2023-04-07T06:22:27.653Z,8.500
2023-04-07T06:23:21.622Z,8.500
2023-04-07T06:24:23.317Z,8.600
2023-04-07T06:25:26.365Z,8.600
2023-04-07T06:26:34.874Z,8.700
2023-04-07T06:27:21.925Z,8.700
2023-04-07T06:28:30.073Z,8.700
2023-04-07T06:29:24.347Z,8.700
2023-04-07T06:30:23.522Z,8.800
2023-04-07T06:31:33.066Z,8.800
2023-04-07T06:32:22.215Z,8.800
2023-04-07T06:33:23.864Z,8.800
2023-04-07T06:34:23.663Z,8.800
2023-04-07T06:35:43.436Z,8.850
2023-04-07T06:36:25.440Z,8.900
2023-04-07T06:37:20.424Z,8.900
2023-04-07T06:38:21.676Z,9.000
2023-04-07T06:39:25.120Z,9.000
2023-04-07T06:40:42.216Z,9.100
2023-04-07T06:41:26.494Z,9.200
2023-04-07T06:42:29.736Z,9.200
2023-04-07T06:43:42.078Z,9.300
2023-04-07T06:44:32.054Z,9.300
2023-04-07T06:45:24.961Z,9.300
2023-04-07T06:46:26.475Z,9.300
2023-04-07T06:47:22.271Z,9.300
2023-04-07T06:49:28.488Z,9.400
2023-04-07T06:50:25.972Z,9.500
2023-04-07T06:51:20.346Z,9.500
2023-04-07T06:52:30.548Z,9.500
2023-04-07T06:53:20.887Z,9.500
2023-04-07T06:54:22.194Z,9.500
2023-04-07T06:55:33.023Z,9.600
2023-04-07T06:56:19.564Z,9.600
2023-04-07T06:57:39.589Z,9.600
2023-04-07T06:58:22.266Z,9.700
2023-04-07T06:59:33.313Z,9.700
2023-04-07T07:00:27.373Z,9.700
2023-04-07T07:01:22.233Z,9.700
2023-04-07T07:02:23.598Z,9.700
2023-04-07T07:03:22.912Z,9.700
2023-04-07T07:04:24.884Z,9.700
2023-04-07T07:05:20.133Z,9.700
2023-04-07T07:06:32.091Z,9.700
2023-04-07T07:07:28.808Z,9.800
2023-04-07T07:08:22.087Z,9.800
2023-04-07T07:09:27.635Z,9.800
2023-04-07T07:10:29.294Z,9.800
2023-04-07T07:12:21.697Z,9.800
2023-04-07T07:13:35.747Z,9.800
2023-04-07T07:14:21.478Z,9.800
2023-04-07T07:15:26.213Z,9.800
2023-04-07T07:16:33.523Z,9.800
2023-04-07T07:17:25.292Z,9.900
2023-04-07T07:18:24.583Z,9.900
2023-04-07T07:19:35.518Z,9.900
2023-04-07T07:20:31.085Z,9.900
2023-04-07T07:21:26.561Z,9.900
2023-04-07T07:22:24.323Z,9.900
2023-04-07T07:23:22.740Z,9.900
2023-04-07T07:24:28.718Z,10.000
2023-04-07T07:25:22.964Z,10.000
2023-04-07T07:26:20.487Z,10.000
2023-04-07T07:27:32.751Z,10.000
2023-04-07T07:28:26.892Z,10.100
2023-04-07T07:29:33.759Z,10.100
2023-04-07T07:30:28.858Z,10.100
2023-04-07T07:31:19.898Z,10.100
2023-04-07T07:32:26.431Z,10.100
2023-04-07T07:34:30.398Z,10.100
2023-04-07T07:35:28.471Z,10.100
2023-04-07T07:36:22.590Z,10.200
2023-04-07T07:37:32.286Z,10.200
2023-04-07T07:38:28.721Z,10.200
2023-04-07T07:39:24.820Z,10.300
2023-04-07T07:40:20.544Z,10.300
2023-04-07T07:41:31.445Z,10.300
2023-04-07T07:42:26.211Z,10.300
2023-04-07T07:43:24.793Z,10.400
2023-04-07T07:44:36.332Z,10.400
2023-04-07T07:45:28.979Z,10.500
2023-04-07T07:46:21.112Z,10.500
2023-04-07T07:47:20.586Z,10.500
2023-04-07T07:48:20.667Z,10.500
2023-04-07T07:49:24.672Z,10.600
2023-04-07T07:50:22.904Z,10.600
2023-04-07T07:51:32.856Z,10.600
2023-04-07T07:52:30.116Z,10.700
2023-04-07T07:53:25.042Z,10.700
2023-04-07T07:54:34.500Z,10.700
2023-04-07T07:55:25.865Z,10.700
2023-04-07T07:56:41.843Z,10.700
2023-04-07T07:57:22.347Z,10.700
2023-04-07T07:58:33.856Z,10.700
2023-04-07T07:59:28.722Z,10.700
2023-04-07T08:00:22.426Z,10.700
2023-04-07T08:01:22.001Z,10.700
2023-04-07T08:02:30.557Z,10.700
2023-04-07T08:03:23.646Z,10.700
2023-04-07T08:04:22.397Z,10.700
2023-04-07T08:05:33.451Z,10.700
2023-04-07T08:06:24.837Z,10.700
2023-04-07T08:07:24.241Z,10.700
2023-04-07T08:08:20.203Z,10.700
2023-04-07T08:09:33.057Z,10.700
2023-04-07T08:12:35.015Z,10.700
2023-04-07T08:13:28.676Z,10.800
2023-04-07T08:14:26.416Z,10.900
2023-04-07T08:15:20.268Z,11.000
2023-04-07T08:16:22.283Z,11.000
2023-04-07T08:17:22.720Z,11.100
2023-04-07T08:18:25.182Z,11.200
2023-04-07T08:20:30.975Z,11.300
2023-04-07T08:21:24.491Z,11.300
2023-04-07T08:22:20.053Z,11.300
2023-04-07T08:23:28.666Z,11.300
2023-04-07T08:24:26.585Z,11.400
2023-04-07T08:25:22.657Z,11.400
2023-04-07T08:26:20.678Z,11.400
2023-04-07T08:27:28.350Z,11.400
2023-04-07T08:28:24.468Z,11.400
2023-04-07T08:29:20.616Z,11.400
2023-04-07T08:30:21.327Z,11.400
2023-04-07T08:31:27.916Z,11.300
2023-04-07T08:32:23.209Z,11.300
2023-04-07T08:33:24.946Z,11.300
2023-04-07T08:34:23.640Z,11.300
2023-04-07T08:35:24.635Z,11.400
2023-04-07T08:36:22.516Z,11.400
2023-04-07T08:37:23.254Z,11.500
2023-04-07T08:38:28.011Z,11.500
2023-04-07T08:40:32.144Z,11.400
2023-04-07T08:42:24.389Z,11.400
2023-04-07T08:43:21.777Z,11.400
2023-04-07T08:44:25.855Z,11.400
2023-04-07T08:45:21.018Z,11.500
2023-04-07T08:46:25.706Z,11.500
2023-04-07T08:47:33.813Z,11.600
2023-04-07T08:49:24.327Z,11.700
2023-04-07T08:50:20.497Z,11.700
2023-04-07T08:51:28.385Z,11.750
2023-04-07T08:53:23.578Z,11.900
2023-04-07T08:54:22.539Z,11.900
2023-04-07T08:55:24.098Z,12.000
2023-04-07T08:56:24.636Z,12.100
2023-04-07T08:57:21.801Z,12.100
2023-04-07T08:58:33.591Z,12.200
2023-04-07T08:59:26.934Z,12.200
2023-04-07T09:00:23.527Z,12.200
2023-04-07T09:01:27.696Z,12.200
2023-04-07T09:02:22.934Z,12.200
2023-04-07T09:03:24.265Z,12.100
2023-04-07T09:04:20.810Z,12.200
2023-04-07T09:06:23.628Z,12.100
2023-04-07T09:07:22.264Z,12.100
2023-04-07T09:08:32.428Z,12.100
2023-04-07T09:09:22.802Z,12.100
2023-04-07T09:10:24.181Z,12.100
2023-04-07T09:11:20.363Z,12.100
2023-04-07T09:12:30.569Z,12.100
2023-04-07T09:13:19.798Z,12.100
2023-04-07T09:14:23.529Z,12.100
2023-04-07T09:15:37.309Z,12.100
2023-04-07T09:16:28.553Z,12.000
2023-04-07T09:17:20.237Z,12.000
2023-04-07T09:18:20.977Z,12.100
2023-04-07T09:19:26.434Z,12.000
2023-04-07T09:20:27.652Z,12.000
2023-04-07T09:21:22.196Z,12.000
2023-04-07T09:22:32.430Z,11.950
2023-04-07T09:23:32.372Z,11.900
2023-04-07T09:24:26.565Z,11.900
2023-04-07T09:25:29.639Z,11.900
2023-04-07T09:26:27.310Z,12.000
2023-04-07T09:27:26.863Z,12.000
2023-04-07T09:28:22.687Z,12.100
2023-04-07T09:29:34.415Z,12.200
2023-04-07T09:30:21.753Z,12.300
2023-04-07T09:31:29.521Z,12.300
2023-04-07T09:32:20.616Z,12.400
2023-04-07T09:33:48.440Z,12.400
2023-04-07T09:35:22.633Z,12.500
2023-04-07T09:36:26.445Z,12.500
2023-04-07T09:37:30.465Z,12.500
2023-04-07T09:38:24.470Z,12.600
2023-04-07T09:39:22.264Z,12.700
2023-04-07T09:40:30.267Z,12.700
2023-04-07T09:41:27.588Z,12.700
2023-04-07T09:43:32.593Z,12.900
2023-04-07T09:44:29.406Z,13.000
2023-04-07T09:45:33.869Z,13.050
2023-04-07T09:46:21.197Z,13.100
2023-04-07T09:47:23.559Z,13.100
2023-04-07T09:48:26.287Z,13.000
2023-04-07T09:49:26.748Z,13.100
2023-04-07T09:51:28.259Z,12.900
2023-04-07T09:52:24.515Z,12.900
2023-04-07T09:53:22.024Z,12.900
2023-04-07T09:54:25.467Z,12.900
2023-04-07T09:55:26.378Z,12.900
2023-04-07T09:56:22.536Z,13.000
2023-04-07T09:57:22.098Z,13.000
2023-04-07T09:58:23.258Z,13.000
2023-04-07T09:59:25.690Z,13.000
2023-04-07T10:00:20.902Z,13.150
2023-04-07T10:01:30.376Z,13.200
2023-04-07T10:02:23.785Z,13.200
2023-04-07T10:03:22.475Z,13.200
2023-04-07T10:04:26.394Z,13.300
2023-04-07T10:06:24.283Z,13.400
2023-04-07T10:07:21.844Z,13.400
2023-04-07T10:08:35.870Z,13.400
2023-04-07T10:09:26.785Z,13.500
2023-04-07T10:10:24.524Z,13.500
2023-04-07T10:11:23.160Z,13.500
2023-04-07T10:12:25.543Z,13.600
2023-04-07T10:13:24.303Z,13.700
2023-04-07T10:14:20.383Z,13.700
2023-04-07T10:15:23.444Z,13.700
2023-04-07T10:16:26.749Z,13.700
2023-04-07T10:17:23.727Z,13.700
2023-04-07T10:18:26.247Z,13.800
2023-04-07T10:19:29.441Z,13.900
2023-04-07T10:20:20.452Z,13.800
2023-04-07T10:21:22.305Z,13.800
2023-04-07T10:22:21.747Z,13.800
2023-04-07T10:23:29.073Z,13.750
2023-04-07T10:24:22.245Z,13.700
2023-04-07T10:25:23.007Z,13.600
2023-04-07T10:26:19.738Z,13.600
2023-04-07T10:27:24.394Z,13.600
2023-04-07T10:29:25.910Z,13.500
2023-04-07T10:30:26.391Z,13.500
2023-04-07T10:31:22.283Z,13.500
2023-04-07T10:32:24.556Z,13.600
2023-04-07T10:33:28.483Z,13.600
2023-04-07T10:34:26.558Z,13.700
2023-04-07T10:35:22.391Z,13.700
2023-04-07T10:37:27.785Z,13.800
2023-04-07T10:38:22.857Z,13.800
2023-04-07T10:39:28.698Z,13.700
2023-04-07T10:40:22.794Z,13.700
2023-04-07T10:41:24.530Z,13.700
2023-04-07T10:42:21.398Z,13.700
2023-04-07T10:43:22.512Z,13.700
2023-04-07T10:44:34.849Z,13.800
2023-04-07T10:45:22.914Z,13.850
2023-04-07T10:46:38.873Z,13.900
2023-04-07T10:47:30.080Z,13.900
2023-04-07T10:48:24.465Z,13.900
2023-04-07T10:49:21.004Z,13.900
2023-04-07T10:50:23.501Z,14.000
2023-04-07T10:51:20.181Z,14.000
2023-04-07T10:52:22.574Z,14.000
2023-04-07T10:53:32.986Z,14.000
2023-04-07T10:54:31.401Z,14.000
2023-04-07T10:55:25.209Z,14.000
2023-04-07T10:56:20.744Z,14.000
2023-04-07T10:57:31.519Z,14.000
2023-04-07T10:58:22.920Z,14.100
2023-04-07T10:59:23.206Z,14.100
2023-04-07T11:00:24.695Z,14.200
2023-04-07T11:01:35.972Z,14.200
2023-04-07T11:02:26.766Z,14.100
2023-04-07T11:03:21.918Z,14.100
2023-04-07T11:04:33.624Z,14.000
2023-04-07T11:06:22.396Z,14.000
2023-04-07T11:07:34.045Z,14.000
2023-04-07T11:08:28.364Z,14.100
2023-04-07T11:09:20.712Z,14.000
2023-04-07T11:10:25.147Z,14.100
2023-04-07T11:11:20.802Z,14.100
2023-04-07T11:12:29.049Z,14.200
2023-04-07T11:14:32.741Z,14.200
2023-04-07T11:15:29.496Z,14.200
2023-04-07T11:16:24.345Z,14.200
2023-04-07T11:17:20.419Z,14.200
2023-04-07T11:18:22.734Z,14.200
2023-04-07T11:19:26.210Z,14.200
2023-04-07T11:20:23.002Z,14.200
2023-04-07T11:21:34.107Z,14.200
2023-04-07T11:22:30.563Z,14.200
2023-04-07T11:23:26.857Z,14.200
2023-04-07T11:24:21.069Z,14.400
2023-04-07T11:25:26.034Z,14.400
2023-04-07T11:26:26.698Z,14.500
2023-04-07T11:27:22.402Z,14.500
2023-04-07T11:28:23.652Z,14.500
2023-04-07T11:30:25.686Z,14.500
2023-04-07T11:31:20.338Z,14.450
2023-04-07T11:32:30.695Z,14.400
2023-04-07T11:33:23.519Z,14.400
2023-04-07T11:34:28.402Z,14.400
2023-04-07T11:35:28.033Z,14.400
2023-04-07T11:36:20.725Z,14.400
2023-04-07T11:37:26.697Z,14.400
2023-04-07T11:38:20.271Z,14.400
2023-04-07T11:39:21.103Z,14.400
2023-04-07T11:40:27.844Z,14.400
2023-04-07T11:41:22.788Z,14.400
2023-04-07T11:42:32.426Z,14.500
2023-04-07T11:43:25.915Z,14.600
2023-04-07T11:44:24.639Z,14.600
2023-04-07T11:45:24.427Z,14.700
2023-04-07T11:46:30.400Z,14.700
2023-04-07T11:48:22.108Z,14.800
2023-04-07T11:49:32.450Z,14.800
2023-04-07T11:50:29.021Z,14.800
2023-04-07T11:52:21.563Z,14.700
2023-04-07T11:53:30.362Z,14.700
2023-04-07T11:54:26.688Z,14.700
2023-04-07T11:55:23.873Z,14.700
2023-04-07T11:56:21.263Z,14.600
2023-04-07T11:57:28.455Z,14.600
2023-04-07T11:58:26.353Z,14.600
2023-04-07T12:00:31.918Z,14.600
2023-04-07T12:01:26.457Z,14.500
2023-04-07T12:02:22.900Z,14.500
2023-04-07T12:03:25.573Z,14.500
2023-04-07T12:04:28.414Z,14.500
2023-04-07T12:05:24.450Z,14.500
2023-04-07T12:06:24.454Z,14.500
2023-04-07T12:09:22.680Z,14.550
2023-04-07T12:10:29.586Z,14.600
2023-04-07T12:11:20.477Z,14.700
2023-04-07T12:12:24.512Z,14.700
2023-04-07T12:13:25.180Z,14.700
2023-04-07T12:14:21.911Z,14.700
2023-04-07T12:15:26.336Z,14.700
2023-04-07T12:16:24.172Z,14.600
2023-04-07T12:17:33.357Z,14.650
2023-04-07T12:18:24.676Z,14.700
2023-04-07T12:19:24.491Z,14.600
2023-04-07T12:20:21.431Z,14.600
2023-04-07T12:21:25.037Z,14.700
2023-04-07T12:22:26.345Z,14.600
2023-04-07T12:23:22.377Z,14.600
2023-04-07T12:24:21.694Z,14.750
2023-04-07T12:25:19.890Z,14.900
2023-04-07T12:26:24.514Z,14.900
2023-04-07T12:27:26.718Z,15.100
2023-04-07T12:28:32.051Z,15.100
2023-04-07T12:30:23.923Z,15.100
2023-04-07T12:31:34.144Z,15.100
2023-04-07T12:32:22.955Z,15.100
2023-04-07T12:34:20.495Z,15.100
2023-04-07T12:35:33.279Z,14.900
2023-04-07T12:37:22.591Z,14.900
2023-04-07T12:38:33.256Z,14.900
2023-04-07T12:39:28.613Z,14.850
2023-04-07T12:40:24.231Z,14.700
2023-04-07T12:41:20.378Z,14.700
2023-04-07T12:42:30.539Z,14.700
2023-04-07T12:43:20.928Z,14.700
2023-04-07T12:44:23.371Z,14.600
2023-04-07T12:46:29.237Z,14.500
2023-04-07T12:47:27.732Z,14.500
2023-04-07T12:48:21.750Z,14.400
2023-04-07T12:50:26.777Z,14.400
2023-04-07T12:51:22.766Z,14.400
2023-04-07T12:52:20.467Z,14.400
2023-04-07T12:53:28.589Z,14.400
2023-04-07T12:54:25.314Z,14.400
2023-04-07T12:55:20.820Z,14.550
2023-04-07T12:56:23.763Z,14.700
2023-04-07T12:57:26.554Z,14.700
2023-04-07T12:58:24.343Z,14.700
2023-04-07T12:59:24.571Z,14.800
2023-04-07T13:00:28.594Z,14.900
2023-04-07T13:01:26.211Z,14.900
2023-04-07T13:02:20.821Z,14.950
2023-04-07T13:03:29.716Z,15.100
2023-04-07T13:04:20.828Z,15.200
2023-04-07T13:05:23.784Z,15.200
2023-04-07T13:06:28.662Z,15.200
2023-04-07T13:07:23.433Z,15.200
2023-04-07T13:08:26.732Z,15.200
2023-04-07T13:09:21.326Z,15.200
2023-04-07T13:10:34.787Z,15.150
2023-04-07T13:11:28.498Z,15.100
2023-04-07T13:12:22.601Z,15.100
2023-04-07T13:13:33.397Z,15.100
2023-04-07T13:15:28.250Z,15.200
2023-04-07T13:16:20.742Z,15.200
2023-04-07T13:17:30.424Z,15.100
2023-04-07T13:18:28.612Z,15.100
2023-04-07T13:19:24.401Z,15.000
2023-04-07T13:20:32.871Z,14.900
2023-04-07T13:21:46.589Z,15.000
2023-04-07T13:23:20.548Z,14.900
2023-04-07T13:24:31.770Z,15.000
2023-04-07T13:25:27.158Z,15.000
2023-04-07T13:26:26.131Z,15.100
2023-04-07T13:27:33.940Z,15.100
2023-04-07T13:28:28.263Z,15.100
2023-04-07T13:29:26.086Z,15.200
2023-04-07T13:30:22.712Z,15.200
2023-04-07T13:33:22.461Z,15.300
2023-04-07T13:34:22.702Z,15.300
2023-04-07T13:35:30.589Z,15.200
2023-04-07T13:36:24.434Z,15.200
2023-04-07T13:37:21.175Z,15.200
2023-04-07T13:38:34.774Z,15.100
2023-04-07T13:39:26.987Z,15.100
2023-04-07T13:40:23.742Z,15.000
2023-04-07T13:41:26.456Z,14.800
2023-04-07T13:42:19.295Z,14.700
2023-04-07T13:43:25.286Z,14.700
2023-04-07T13:44:20.482Z,14.600
2023-04-07T13:45:21.728Z,14.500
2023-04-07T13:46:28.848Z,14.400
2023-04-07T13:47:24.320Z,14.300
2023-04-07T13:48:22.104Z,14.200
2023-04-07T13:49:23.139Z,14.100
2023-04-07T13:50:24.822Z,14.100
2023-04-07T13:51:20.417Z,14.100
2023-04-07T13:52:25.863Z,14.100
2023-04-07T13:53:26.677Z,14.100
2023-04-07T13:54:23.711Z,14.000
2023-04-07T13:55:24.715Z,14.050
2023-04-07T13:56:28.649Z,13.900
2023-04-07T13:57:21.880Z,13.900
2023-04-07T13:58:21.071Z,13.800
2023-04-07T13:59:21.292Z,13.700
2023-04-07T14:00:23.514Z,13.700
2023-04-07T14:01:22.809Z,13.800
2023-04-07T14:02:29.404Z,13.800
2023-04-07T14:03:31.867Z,13.800
2023-04-07T14:04:25.305Z,13.800
2023-04-07T14:05:20.748Z,13.900
2023-04-07T14:06:23.099Z,13.900
2023-04-07T14:07:27.714Z,14.000
2023-04-07T14:09:33.486Z,14.000
2023-04-07T14:10:28.585Z,14.000